Flight Track Log - Related Links

Times and Time Zones

All times are in EDT time to prevent confusion due to time zone crossing. See the PT-MVF flight status page for this flight to view local times or setup timezone preferences in your user account.

Time Position Orientation Groundspeed Altitude Reporting Facility
EDT Latitude Longitude Course Direction KTS MPH feet Rate Location/Type
Thu 10:29:15 PM -22.4820 -45.7460 35° Northeast  Level Estimated
Thu 10:30:15 PM -22.3791 -45.6684 35° Northeast  Level Estimated
Thu 10:31:15 PM -22.2762 -45.5909 35° Northeast  Level Estimated
Thu 10:32:15 PM -22.1732 -45.5135 35° Northeast  Level Estimated
Thu 10:33:15 PM -22.0702 -45.4363 35° Northeast  Level Estimated
Thu 10:34:15 PM -21.9671 -45.3591 35° Northeast  Level Estimated
Thu 10:35:15 PM -21.8640 -45.2821 35° Northeast  Level Estimated
Thu 10:36:15 PM -21.7609 -45.2052 35° Northeast  Level Estimated
Thu 10:37:15 PM -21.6578 -45.1283 35° Northeast  Level Estimated
Thu 10:38:15 PM -21.5546 -45.0516 35° Northeast  Level Estimated
Thu 10:39:15 PM -21.4513 -44.9750 35° Northeast  Level Estimated
Thu 10:40:15 PM -21.3481 -44.8985 35° Northeast  Level Estimated
Thu 10:41:15 PM -21.2448 -44.8221 35° Northeast  Level Estimated
Thu 10:42:15 PM -21.1415 -44.7459 35° Northeast  Level Estimated
Thu 10:43:15 PM -21.0381 -44.6697 34° Northeast  Level Estimated
Thu 10:44:15 PM -20.9347 -44.5936 34° Northeast  Level Estimated
Thu 10:45:15 PM -20.8313 -44.5177 34° Northeast  Level Estimated
Thu 10:46:15 PM -20.7278 -44.4418 34° Northeast  Level Estimated
Thu 10:47:15 PM -20.6200 -44.3629 34° Northeast  Level Estimated
Thu 10:48:15 PM -20.5122 -44.2841 34° Northeast  Level Estimated
Thu 10:49:15 PM -20.4043 -44.2055 34° Northeast  Level Estimated
Thu 10:50:15 PM -20.2964 -44.1269 34° Northeast  Level Estimated
Thu 10:51:15 PM -20.1885 -44.0485 34° Northeast  Level Estimated
Thu 10:52:15 PM -20.0806 -43.9701 34° Northeast  Level Estimated
Thu 10:53:15 PM -19.9726 -43.8919 34° Northeast  Level Estimated
Thu 10:54:15 PM -19.8646 -43.8138 34° Northeast  Level Estimated
Thu 10:55:15 PM -19.7565 -43.7358 34° Northeast  Level Estimated
Thu 10:56:15 PM -19.6484 -43.6579 34° Northeast  Level Estimated
Thu 10:57:15 PM -19.5403 -43.5801 34° Northeast  Level Estimated
Thu 10:58:15 PM -19.4321 -43.5024 34° Northeast  Level Estimated
Thu 10:59:15 PM -19.3239 -43.4248 34° Northeast  Level Estimated
Thu 11:00:15 PM -19.2157 -43.3473 34° Northeast  Level Estimated
Thu 11:01:15 PM -19.1075 -43.2699 34° Northeast  Level Estimated
Thu 11:02:15 PM -18.9992 -43.1926 34° Northeast  Level Estimated
Thu 11:03:15 PM -18.8908 -43.1154 34° Northeast  Level Estimated
Thu 11:04:15 PM -18.7825 -43.0383 34° Northeast  Level Estimated
Thu 11:05:15 PM -18.6741 -42.9613 34° Northeast  Level Estimated
Thu 11:06:15 PM -18.5657 -42.8844 34° Northeast  Level Estimated
Thu 11:07:15 PM -18.4572 -42.8077 34° Northeast  Level Estimated
Thu 11:08:15 PM -18.3487 -42.7309 34° Northeast  Level Estimated
Thu 11:09:15 PM -18.2402 -42.6544 34° Northeast  Level Estimated
Thu 11:10:15 PM -18.1317 -42.5778 34° Northeast  Level Estimated
Thu 11:11:15 PM -18.0231 -42.5014 34° Northeast  Level Estimated
Thu 11:12:15 PM -17.9145 -42.4251 34° Northeast  Level Estimated
Thu 11:13:15 PM -17.8059 -42.3489 34° Northeast  Level Estimated
Thu 11:14:15 PM -17.6972 -42.2728 34° Northeast  Level Estimated
Thu 11:15:15 PM -17.5886 -42.1967 34° Northeast  Level Estimated
Thu 11:16:15 PM -17.4798 -42.1208 34° Northeast  Level Estimated
Thu 11:17:15 PM -17.3711 -42.0449 34° Northeast  Level Estimated
Thu 11:18:15 PM -17.2623 -41.9691 34° Northeast  Level Estimated
Thu 11:19:15 PM -17.1535 -41.8935 34° Northeast  Level Estimated
Thu 11:20:15 PM -17.0447 -41.8179 34° Northeast  Level Estimated
Thu 11:21:15 PM -16.9358 -41.7424 34° Northeast  Level Estimated
Thu 11:22:15 PM -16.8269 -41.6670 34° Northeast  Level Estimated
Thu 11:23:15 PM -16.7180 -41.5916 34° Northeast  Level Estimated
Thu 11:24:15 PM -16.6091 -41.5164 33° Northeast  Level Estimated
Thu 11:25:15 PM -16.5001 -41.4412 33° Northeast  Level Estimated
Thu 11:26:15 PM -16.3911 -41.3662 33° Northeast  Level Estimated
Thu 11:27:15 PM -16.2821 -41.2912 33° Northeast  Level Estimated
Thu 11:28:15 PM -16.1730 -41.2163 33° Northeast  Level Estimated
Thu 11:29:15 PM -16.0640 -41.1415 33° Northeast  Level Estimated
Thu 11:30:15 PM -15.9549 -41.0667 33° Northeast  Level Estimated
Thu 11:31:15 PM -15.8457 -40.9921 33° Northeast  Level Estimated
Thu 11:32:15 PM -15.7366 -40.9175 33° Northeast  Level Estimated
Thu 11:33:15 PM -15.6274 -40.8430 33° Northeast  Level Estimated
Thu 11:34:15 PM -15.5182 -40.7686 33° Northeast  Level Estimated
Thu 11:35:15 PM -15.4090 -40.6942 33° Northeast  Level Estimated
Thu 11:36:15 PM -15.2997 -40.6200 33° Northeast  Level Estimated
Thu 11:37:15 PM -15.1904 -40.5458 33° Northeast  Level Estimated
Thu 11:38:15 PM -15.0811 -40.4717 33° Northeast  Level Estimated
Thu 11:39:15 PM -14.9718 -40.3977 33° Northeast  Level Estimated
Thu 11:40:15 PM -14.8625 -40.3237 33° Northeast  Level Estimated
Thu 11:41:15 PM -14.7531 -40.2498 33° Northeast  Level Estimated
Thu 11:42:15 PM -14.6437 -40.1760 33° Northeast  Level Estimated
Thu 11:43:15 PM -14.5343 -40.1023 33° Northeast  Level Estimated
Thu 11:44:15 PM -14.4249 -40.0286 33° Northeast  Level Estimated
Thu 11:45:15 PM -14.3154 -39.9550 33° Northeast  Level Estimated
Thu 11:46:15 PM -14.2059 -39.8815 33° Northeast  Level Estimated
Thu 11:47:15 PM -14.0964 -39.8081 33° Northeast  Level Estimated
Thu 11:48:15 PM -13.9869 -39.7347 33° Northeast  Level Estimated
Thu 11:49:15 PM -13.8773 -39.6614 33° Northeast  Level Estimated
Thu 11:50:15 PM -13.7677 -39.5882 33° Northeast  Level Estimated
Thu 11:51:15 PM -13.6581 -39.5150 33° Northeast  Level Estimated
Thu 11:52:15 PM -13.5485 -39.4419 33° Northeast  Level Estimated
Thu 11:53:15 PM -13.4389 -39.3689 33° Northeast  Level Estimated
Thu 11:54:15 PM -13.3292 -39.2959 33° Northeast  Level Estimated
Thu 11:55:15 PM -13.2195 -39.2230 33° Northeast  Level Estimated
Thu 11:56:15 PM -13.1098 -39.1502 33° Northeast  Level Estimated
Thu 11:57:15 PM -13.0001 -39.0774 33° Northeast  Level Estimated
Thu 11:58:15 PM -12.8904 -39.0047 33° Northeast  Level Estimated
Thu 11:59:15 PM -12.7806 -38.9321 33° Northeast  Level Estimated
Fri 12:00:15 AM -12.6708 -38.8595 33° Northeast  Level Estimated
Fri 12:01:15 AM -12.5610 -38.7870 33° Northeast  Level Estimated
Fri 12:02:15 AM -12.4512 -38.7146 33° Northeast  Level Estimated
Fri 12:03:15 AM -12.3414 -38.6422 33° Northeast  Level Estimated
Fri 12:04:15 AM -12.2315 -38.5698 33° Northeast  Level Estimated
Fri 12:05:15 AM -12.1216 -38.4976 33° Northeast  Level Estimated
Fri 12:06:15 AM -12.0117 -38.4254 33° Northeast  Level Estimated
Fri 12:07:15 AM -11.9018 -38.3532 33° Northeast  Level Estimated
Fri 12:08:15 AM -11.7919 -38.2811 33° Northeast  Level Estimated
Fri 12:09:15 AM -11.6819 -38.2091 33° Northeast  Level Estimated
Fri 12:10:15 AM -11.5720 -38.1371 33° Northeast  Level Estimated
Fri 12:11:15 AM -11.4620 -38.0652 33° Northeast  Level Estimated
Fri 12:12:15 AM -11.3520 -37.9933 33° Northeast  Level Estimated
Fri 12:13:15 AM -11.2419 -37.9215 33° Northeast  Level Estimated
Fri 12:14:15 AM -11.1319 -37.8498 33° Northeast  Level Estimated
Fri 12:15:15 AM -11.0218 -37.7781 33° Northeast  Level Estimated
Fri 12:16:15 AM -10.9118 -37.7064 33° Northeast  Level Estimated
Fri 12:17:15 AM -10.8017 -37.6348 33° Northeast  Level Estimated
Fri 12:18:15 AM -10.6916 -37.5633 33° Northeast  Level Estimated
Fri 12:19:15 AM -10.5815 -37.4918 33° Northeast  Level Estimated
Fri 12:20:15 AM -10.4713 -37.4204 33° Northeast  Level Estimated
Fri 12:21:15 AM -10.3611 -37.3490 33° Northeast  Level Estimated
Fri 12:22:15 AM -10.2510 -37.2776 32° Northeast  Level Estimated
Fri 12:23:15 AM -10.1408 -37.2063 32° Northeast  Level Estimated
Fri 12:24:15 AM -10.0306 -37.1351 32° Northeast  Level Estimated
Fri 12:25:15 AM -9.9204 -37.0639 32° Northeast  Level Estimated
Fri 12:26:15 AM -9.8101 -36.9928 32° Northeast  Level Estimated
Fri 12:27:15 AM -9.6999 -36.9217 32° Northeast  Level Estimated
Fri 12:28:15 AM -9.5896 -36.8506 32° Northeast  Level Estimated
Fri 12:29:15 AM -9.4794 -36.7796 32° Northeast  Level Estimated
Fri 12:30:15 AM -9.3691 -36.7087 32° Northeast  Level Estimated
Fri 12:31:15 AM -9.2587 -36.6378 32° Northeast  Level Estimated
Fri 12:32:15 AM -9.1484 -36.5669 32° Northeast  Level Estimated
Fri 12:33:15 AM -9.0381 -36.4961 32° Northeast  Level Estimated
Fri 12:34:15 AM -8.9277 -36.4253 32° Northeast  Level Estimated
Fri 12:35:15 AM -8.8174 -36.3545 32° Northeast  Level Estimated
Fri 12:36:15 AM -8.7070 -36.2839 32° Northeast  Level Estimated
Fri 12:37:15 AM -8.5966 -36.2132 32° Northeast  Level Estimated
Fri 12:38:15 AM -8.4862 -36.1426 32° Northeast  Level Estimated
Fri 12:39:15 AM -8.3758 -36.0720 32° Northeast  Level Estimated
Fri 12:40:15 AM -8.2654 -36.0015 32° Northeast  Level Estimated
Fri 12:41:15 AM -8.1550 -35.9310 32° Northeast  Level Estimated
Fri 12:42:15 AM -8.0445 -35.8606 32° Northeast  Level Estimated
Fri 12:43:15 AM -7.9341 -35.7901 32° Northeast  Level Estimated
Fri 12:44:15 AM -7.8236 -35.7198 32° Northeast  Level Estimated
Fri 12:45:15 AM -7.7131 -35.6494 32° Northeast  Level Estimated
Fri 12:46:15 AM -7.6026 -35.5791 32° Northeast  Level Estimated
Fri 12:47:15 AM -7.4921 -35.5089 32° Northeast  Level Estimated
Fri 12:48:15 AM -7.3816 -35.4386 32° Northeast  Level Estimated
Fri 12:49:15 AM -7.2710 -35.3684 32° Northeast  Level Estimated
Fri 12:50:15 AM -7.1605 -35.2983 32° Northeast  Level Estimated
Fri 12:51:15 AM -7.0500 -35.2281 32° Northeast  Level Estimated
Fri 12:52:15 AM -6.9394 -35.1581 32° Northeast  Level Estimated
Fri 12:53:15 AM -6.8288 -35.0880 32° Northeast  Level Estimated
Fri 12:54:15 AM -6.7182 -35.0180 32° Northeast  Level Estimated
Fri 12:55:15 AM -6.6076 -34.9480 32° Northeast  Level Estimated
Fri 12:56:15 AM -6.4970 -34.8780 32° Northeast  Level Estimated
Fri 12:57:15 AM -6.3864 -34.8081 32° Northeast  Level Estimated
Fri 12:58:15 AM -6.2758 -34.7382 32° Northeast  Level Estimated
Fri 12:59:15 AM -6.1652 -34.6683 32° Northeast  Level Estimated
Fri 01:00:15 AM -6.0546 -34.5985 32° Northeast  Level Estimated
Fri 01:01:15 AM -5.9439 -34.5286 32° Northeast  Level Estimated
Fri 01:02:15 AM -5.8332 -34.4589 32° Northeast  Level Estimated
Fri 01:03:15 AM -5.7226 -34.3891 32° Northeast  Level Estimated
Fri 01:04:15 AM -5.6119 -34.3194 32° Northeast  Level Estimated
Fri 01:05:15 AM -5.5012 -34.2497 32° Northeast  Level Estimated
Fri 01:06:15 AM -5.3905 -34.1800 32° Northeast  Level Estimated
Fri 01:07:15 AM -5.2798 -34.1103 32° Northeast  Level Estimated
Fri 01:08:15 AM -5.1691 -34.0407 32° Northeast  Level Estimated
Fri 01:09:15 AM -5.0584 -33.9711 32° Northeast  Level Estimated
Fri 01:10:15 AM -4.9477 -33.9015 32° Northeast  Level Estimated
Fri 01:11:15 AM -4.8370 -33.8320 32° Northeast  Level Estimated
Fri 01:12:15 AM -4.7263 -33.7624 32° Northeast  Level Estimated
Fri 01:13:15 AM -4.6155 -33.6929 32° Northeast  Level Estimated
Fri 01:14:15 AM -4.5048 -33.6234 32° Northeast  Level Estimated
Fri 01:15:15 AM -4.3940 -33.5539 32° Northeast  Level Estimated
Fri 01:16:15 AM -4.2832 -33.4845 32° Northeast  Level Estimated
Fri 01:17:15 AM -4.1725 -33.4151 32° Northeast  Level Estimated
Fri 01:18:15 AM -4.0617 -33.3456 32° Northeast  Level Estimated
Fri 01:19:15 AM -3.9509 -33.2763 32° Northeast  Level Estimated
Fri 01:20:15 AM -3.8402 -33.2069 32° Northeast  Level Estimated
Fri 01:21:15 AM -3.7294 -33.1375 32° Northeast  Level Estimated
Fri 01:22:15 AM -3.6186 -33.0682 32° Northeast  Level Estimated
Fri 01:23:15 AM -3.5078 -32.9989 32° Northeast  Level Estimated
Fri 01:24:15 AM -3.3970 -32.9296 32° Northeast  Level Estimated
Fri 01:25:15 AM -3.2861 -32.8603 32° Northeast  Level Estimated
Fri 01:26:15 AM -3.1753 -32.7910 32° Northeast  Level Estimated
Fri 01:27:15 AM -3.0645 -32.7217 32° Northeast  Level Estimated
Fri 01:28:15 AM -2.9537 -32.6525 32° Northeast  Level Estimated
Fri 01:29:15 AM -2.8428 -32.5833 32° Northeast  Level Estimated
Fri 01:30:15 AM -2.7320 -32.5140 32° Northeast  Level Estimated
Fri 01:31:15 AM -2.6212 -32.4449 32° Northeast  Level Estimated
Fri 01:32:15 AM -2.5103 -32.3757 32° Northeast  Level Estimated
Fri 01:33:15 AM -2.3995 -32.3065 32° Northeast  Level Estimated
Fri 01:34:15 AM -2.2886 -32.2373 32° Northeast  Level Estimated
Fri 01:35:15 AM -2.1778 -32.1682 32° Northeast  Level Estimated
Fri 01:36:15 AM -2.0669 -32.0990 32° Northeast  Level Estimated
Fri 01:37:15 AM -1.9561 -32.0299 32° Northeast  Level Estimated
Fri 01:38:15 AM -1.8452 -31.9607 32° Northeast  Level Estimated
Fri 01:39:15 AM -1.7343 -31.8916 32° Northeast  Level Estimated
Fri 01:40:15 AM -1.6235 -31.8225 32° Northeast  Level Estimated
Fri 01:41:15 AM -1.5126 -31.7534 32° Northeast  Level Estimated
Fri 01:42:15 AM -1.4017 -31.6843 32° Northeast  Level Estimated
Fri 01:43:15 AM -1.2909 -31.6152 32° Northeast  Level Estimated
Fri 01:44:15 AM -1.1800 -31.5461 32° Northeast  Level Estimated
Fri 01:45:15 AM -1.0691 -31.4770 32° Northeast  Level Estimated
Fri 01:46:15 AM -0.9582 -31.4080 32° Northeast  Level Estimated
Fri 01:47:15 AM -0.8474 -31.3389 32° Northeast  Level Estimated
Fri 01:48:15 AM -0.7365 -31.2698 32° Northeast  Level Estimated
Fri 01:49:15 AM -0.6256 -31.2008 32° Northeast  Level Estimated
Fri 01:50:15 AM -0.5147 -31.1317 32° Northeast  Level Estimated
Fri 01:51:15 AM -0.4038 -31.0626 32° Northeast  Level Estimated
Fri 01:52:15 AM -0.2930 -30.9936 32° Northeast  Level Estimated
Fri 01:53:15 AM -0.1821 -30.9245 32° Northeast  Level Estimated
Fri 01:54:15 AM -0.0712 -30.8555 32° Northeast  Level Estimated
Fri 01:55:15 AM 0.0397 -30.7864 32° Northeast  Level Estimated
Fri 01:56:15 AM 0.1506 -30.7174 32° Northeast  Level Estimated
Fri 01:57:15 AM 0.2614 -30.6483 32° Northeast  Level Estimated
Fri 01:58:15 AM 0.3723 -30.5793 32° Northeast  Level Estimated
Fri 01:59:15 AM 0.4832 -30.5102 32° Northeast  Level Estimated
Fri 02:00:15 AM 0.5941 -30.4412 32° Northeast  Level Estimated
Fri 02:01:15 AM 0.7050 -30.3721 32° Northeast  Level Estimated
Fri 02:02:15 AM 0.8159 -30.3030 32° Northeast  Level Estimated
Fri 02:03:15 AM 0.9267 -30.2340 32° Northeast  Level Estimated
Fri 02:04:15 AM 1.0376 -30.1649 32° Northeast  Level Estimated
Fri 02:05:15 AM 1.1485 -30.0958 32° Northeast  Level Estimated
Fri 02:06:15 AM 1.2594 -30.0267 32° Northeast  Level Estimated
Fri 02:07:15 AM 1.3702 -29.9576 32° Northeast  Level Estimated
Fri 02:08:15 AM 1.4811 -29.8885 32° Northeast  Level Estimated
Fri 02:09:15 AM 1.5920 -29.8195 32° Northeast  Level Estimated
Fri 02:10:15 AM 1.7028 -29.7503 32° Northeast  Level Estimated
Fri 02:11:15 AM 1.8137 -29.6812 32° Northeast  Level Estimated
Fri 02:12:15 AM 1.9246 -29.6121 32° Northeast  Level Estimated
Fri 02:13:15 AM 2.0354 -29.5429 32° Northeast  Level Estimated
Fri 02:14:15 AM 2.1463 -29.4738 32° Northeast  Level Estimated
Fri 02:15:15 AM 2.2571 -29.4046 32° Northeast  Level Estimated
Fri 02:16:15 AM 2.3680 -29.3355 32° Northeast  Level Estimated
Fri 02:17:15 AM 2.4788 -29.2663 32° Northeast  Level Estimated
Fri 02:18:15 AM 2.5897 -29.1971 32° Northeast  Level Estimated
Fri 02:19:15 AM 2.7005 -29.1279 32° Northeast  Level Estimated
Fri 02:20:15 AM 2.8114 -29.0587 32° Northeast  Level Estimated
Fri 02:21:15 AM 2.9222 -28.9895 32° Northeast  Level Estimated
Fri 02:22:15 AM 3.0330 -28.9202 32° Northeast  Level Estimated
Fri 02:23:15 AM 3.1438 -28.8510 32° Northeast  Level Estimated
Fri 02:24:15 AM 3.2547 -28.7817 32° Northeast  Level Estimated
Fri 02:25:15 AM 3.3655 -28.7124 32° Northeast  Level Estimated
Fri 02:26:15 AM 3.4763 -28.6431 32° Northeast  Level Estimated
Fri 02:27:15 AM 3.5871 -28.5738 32° Northeast  Level Estimated
Fri 02:28:15 AM 3.6979 -28.5045 32° Northeast  Level Estimated
Fri 02:29:15 AM 3.8087 -28.4351 32° Northeast  Level Estimated
Fri 02:30:15 AM 3.9195 -28.3658 32° Northeast  Level Estimated
Fri 02:31:15 AM 4.0302 -28.2964 32° Northeast  Level Estimated
Fri 02:32:15 AM 4.1410 -28.2270 32° Northeast  Level Estimated
Fri 02:33:15 AM 4.2518 -28.1575 32° Northeast  Level Estimated
Fri 02:34:15 AM 4.3625 -28.0881 32° Northeast  Level Estimated
Fri 02:35:15 AM 4.4733 -28.0186 32° Northeast  Level Estimated
Fri 02:36:15 AM 4.5841 -27.9491 32° Northeast  Level Estimated
Fri 02:37:15 AM 4.6948 -27.8796 32° Northeast  Level Estimated
Fri 02:38:15 AM 4.8055 -27.8101 32° Northeast  Level Estimated
Fri 02:39:15 AM 4.9163 -27.7405 32° Northeast  Level Estimated
Fri 02:40:15 AM 5.0270 -27.6710 32° Northeast  Level Estimated
Fri 02:41:15 AM 5.1377 -27.6014 32° Northeast  Level Estimated
Fri 02:42:15 AM 5.2484 -27.5317 32° Northeast  Level Estimated
Fri 02:43:15 AM 5.3591 -27.4621 32° Northeast  Level Estimated
Fri 02:44:15 AM 5.4698 -27.3924 32° Northeast  Level Estimated
Fri 02:45:15 AM 5.5805 -27.3227 32° Northeast  Level Estimated
Fri 02:46:15 AM 5.6912 -27.2530 32° Northeast  Level Estimated
Fri 02:47:15 AM 5.8018 -27.1833 32° Northeast  Level Estimated
Fri 02:48:15 AM 5.9125 -27.1135 32° Northeast  Level Estimated
Fri 02:49:15 AM 6.0231 -27.0437 32° Northeast  Level Estimated
Fri 02:50:15 AM 6.1338 -26.9738 32° Northeast  Level Estimated
Fri 02:51:15 AM 6.2444 -26.9039 32° Northeast  Level Estimated
Fri 02:52:15 AM 6.3550 -26.8341 32° Northeast  Level Estimated
Fri 02:53:15 AM 6.4656 -26.7641 32° Northeast  Level Estimated
Fri 02:54:15 AM 6.5762 -26.6942 32° Northeast  Level Estimated
Fri 02:55:15 AM 6.6868 -26.6242 32° Northeast  Level Estimated
Fri 02:56:15 AM 6.7974 -26.5542 32° Northeast  Level Estimated
Fri 02:57:15 AM 6.9080 -26.4841 32° Northeast  Level Estimated
Fri 02:58:15 AM 7.0185 -26.4140 32° Northeast  Level Estimated
Fri 02:59:15 AM 7.1291 -26.3439 32° Northeast  Level Estimated
Fri 03:00:15 AM 7.2396 -26.2738 32° Northeast  Level Estimated
Fri 03:01:15 AM 7.3502 -26.2036 32° Northeast  Level Estimated
Fri 03:02:15 AM 7.4607 -26.1334 32° Northeast  Level Estimated
Fri 03:03:15 AM 7.5712 -26.0631 32° Northeast  Level Estimated
Fri 03:04:15 AM 7.6817 -25.9928 32° Northeast  Level Estimated
Fri 03:05:15 AM 7.7922 -25.9225 32° Northeast  Level Estimated
Fri 03:06:15 AM 7.9027 -25.8521 32° Northeast  Level Estimated
Fri 03:07:15 AM 8.0131 -25.7817 32° Northeast  Level Estimated
Fri 03:08:15 AM 8.1236 -25.7113 32° Northeast  Level Estimated
Fri 03:09:15 AM 8.2340 -25.6408 32° Northeast  Level Estimated
Fri 03:10:15 AM 8.3444 -25.5703 32° Northeast  Level Estimated
Fri 03:11:15 AM 8.4549 -25.4997 32° Northeast  Level Estimated
Fri 03:12:15 AM 8.5653 -25.4291 32° Northeast  Level Estimated
Fri 03:13:15 AM 8.6756 -25.3585 32° Northeast  Level Estimated
Fri 03:14:15 AM 8.7860 -25.2878 32° Northeast  Level Estimated
Fri 03:15:15 AM 8.8964 -25.2171 32° Northeast  Level Estimated
Fri 03:16:15 AM 9.0067 -25.1463 32° Northeast  Level Estimated
Fri 03:17:15 AM 9.1171 -25.0755 32° Northeast  Level Estimated
Fri 03:18:15 AM 9.2274 -25.0046 32° Northeast  Level Estimated
Fri 03:19:15 AM 9.3377 -24.9337 32° Northeast  Level Estimated
Fri 03:20:15 AM 9.4480 -24.8628 32° Northeast  Level Estimated
Fri 03:21:15 AM 9.5583 -24.7918 32° Northeast  Level Estimated
Fri 03:22:15 AM 9.6686 -24.7208 32° Northeast  Level Estimated
Fri 03:23:15 AM 9.7788 -24.6497 32° Northeast  Level Estimated
Fri 03:24:15 AM 9.8890 -24.5786 32° Northeast  Level Estimated
Fri 03:25:15 AM 9.9993 -24.5074 32° Northeast  Level Estimated
Fri 03:26:15 AM 10.1095 -24.4362 32° Northeast  Level Estimated
Fri 03:27:15 AM 10.2197 -24.3649 32° Northeast  Level Estimated
Fri 03:28:15 AM 10.3299 -24.2936 33° Northeast  Level Estimated
Fri 03:29:15 AM 10.4400 -24.2222 33° Northeast  Level Estimated
Fri 03:30:15 AM 10.5501 -24.1508 33° Northeast  Level Estimated
Fri 03:31:15 AM 10.6603 -24.0793 33° Northeast  Level Estimated
Fri 03:32:15 AM 10.7704 -24.0078 33° Northeast  Level Estimated
Fri 03:33:15 AM 10.8805 -23.9362 33° Northeast  Level Estimated
Fri 03:34:15 AM 10.9906 -23.8646 33° Northeast  Level Estimated
Fri 03:35:15 AM 11.1006 -23.7929 33° Northeast  Level Estimated
Fri 03:36:15 AM 11.2107 -23.7212 33° Northeast  Level Estimated
Fri 03:37:15 AM 11.3207 -23.6494 33° Northeast  Level Estimated
Fri 03:38:15 AM 11.4307 -23.5775 33° Northeast  Level Estimated
Fri 03:39:15 AM 11.5407 -23.5056 33° Northeast  Level Estimated
Fri 03:40:15 AM 11.6507 -23.4337 33° Northeast  Level Estimated
Fri 03:41:15 AM 11.7606 -23.3617 33° Northeast  Level Estimated
Fri 03:42:15 AM 11.8706 -23.2896 33° Northeast  Level Estimated
Fri 03:43:15 AM 11.9805 -23.2174 33° Northeast  Level Estimated
Fri 03:44:15 AM 12.0904 -23.1453 33° Northeast  Level Estimated
Fri 03:45:15 AM 12.2003 -23.0730 33° Northeast  Level Estimated
Fri 03:46:15 AM 12.3102 -23.0007 33° Northeast  Level Estimated
Fri 03:47:15 AM 12.4200 -22.9283 33° Northeast  Level Estimated
Fri 03:48:15 AM 12.5298 -22.8559 33° Northeast  Level Estimated
Fri 03:49:15 AM 12.6397 -22.7834 33° Northeast  Level Estimated
Fri 03:50:15 AM 12.7494 -22.7108 33° Northeast  Level Estimated
Fri 03:51:15 AM 12.8592 -22.6382 33° Northeast  Level Estimated
Fri 03:52:15 AM 12.9690 -22.5655 33° Northeast  Level Estimated
Fri 03:53:15 AM 13.0787 -22.4928 33° Northeast  Level Estimated
Fri 03:54:15 AM 13.1884 -22.4200 33° Northeast  Level Estimated
Fri 03:55:15 AM 13.2981 -22.3471 33° Northeast  Level Estimated
Fri 03:56:15 AM 13.4078 -22.2742 33° Northeast  Level Estimated
Fri 03:57:15 AM 13.5174 -22.2012 33° Northeast  Level Estimated
Fri 03:58:15 AM 13.6270 -22.1281 33° Northeast  Level Estimated
Fri 03:59:15 AM 13.7366 -22.0549 33° Northeast  Level Estimated
Fri 04:00:15 AM 13.8462 -21.9817 33° Northeast  Level Estimated
Fri 04:01:15 AM 13.9558 -21.9084 33° Northeast  Level Estimated
Fri 04:02:15 AM 14.0653 -21.8351 33° Northeast  Level Estimated
Fri 04:03:15 AM 14.1748 -21.7617 33° Northeast  Level Estimated
Fri 04:04:15 AM 14.2843 -21.6882 33° Northeast  Level Estimated
Fri 04:05:15 AM 14.3938 -21.6146 33° Northeast  Level Estimated
Fri 04:06:15 AM 14.5032 -21.5410 33° Northeast  Level Estimated
Fri 04:07:15 AM 14.6127 -21.4673 33° Northeast  Level Estimated
Fri 04:08:15 AM 14.7221 -21.3935 33° Northeast  Level Estimated
Fri 04:09:15 AM 14.8314 -21.3196 33° Northeast  Level Estimated
Fri 04:10:15 AM 14.9408 -21.2457 33° Northeast  Level Estimated
Fri 04:11:15 AM 15.0501 -21.1717 33° Northeast  Level Estimated
Fri 04:12:15 AM 15.1594 -21.0976 33° Northeast  Level Estimated
Fri 04:13:15 AM 15.2687 -21.0235 33° Northeast  Level Estimated
Fri 04:14:15 AM 15.3780 -20.9492 33° Northeast  Level Estimated
Fri 04:15:15 AM 15.4872 -20.8749 33° Northeast  Level Estimated
Fri 04:16:15 AM 15.5964 -20.8005 33° Northeast  Level Estimated
Fri 04:17:15 AM 15.7056 -20.7260 33° Northeast  Level Estimated
Fri 04:18:15 AM 15.8147 -20.6515 33° Northeast  Level Estimated
Fri 04:19:15 AM 15.9239 -20.5769 33° Northeast  Level Estimated
Fri 04:20:15 AM 16.0330 -20.5022 33° Northeast  Level Estimated
Fri 04:21:15 AM 16.1421 -20.4274 33° Northeast  Level Estimated
Fri 04:22:15 AM 16.2511 -20.3525 33° Northeast  Level Estimated
Fri 04:23:15 AM 16.3602 -20.2775 33° Northeast  Level Estimated
Fri 04:24:15 AM 16.4692 -20.2025 33° Northeast  Level Estimated
Fri 04:25:15 AM 16.5781 -20.1273 33° Northeast  Level Estimated
Fri 04:26:15 AM 16.6871 -20.0521 33° Northeast  Level Estimated
Fri 04:27:15 AM 16.7960 -19.9768 34° Northeast  Level Estimated
Fri 04:28:15 AM 16.9049 -19.9014 34° Northeast  Level Estimated
Fri 04:29:15 AM 17.0138 -19.8260 34° Northeast  Level Estimated
Fri 04:30:15 AM 17.1226 -19.7504 34° Northeast  Level Estimated
Fri 04:31:15 AM 17.2314 -19.6747 34° Northeast  Level Estimated
Fri 04:32:15 AM 17.3402 -19.5990 34° Northeast  Level Estimated
Fri 04:33:15 AM 17.4489 -19.5232 34° Northeast  Level Estimated
Fri 04:34:15 AM 17.5577 -19.4473 34° Northeast  Level Estimated
Fri 04:35:15 AM 17.6664 -19.3713 34° Northeast  Level Estimated
Fri 04:36:15 AM 17.7750 -19.2952 34° Northeast  Level Estimated
Fri 04:37:15 AM 17.8837 -19.2190 34° Northeast  Level Estimated
Fri 04:38:15 AM 17.9923 -19.1427 34° Northeast  Level Estimated
Fri 04:39:15 AM 18.1009 -19.0663 34° Northeast  Level Estimated
Fri 04:40:15 AM 18.2094 -18.9898 34° Northeast  Level Estimated
Fri 04:41:15 AM 18.3179 -18.9132 34° Northeast  Level Estimated
Fri 04:42:15 AM 18.4264 -18.8366 34° Northeast  Level Estimated
Fri 04:43:15 AM 18.5349 -18.7598 34° Northeast  Level Estimated
Fri 04:44:15 AM 18.6433 -18.6829 34° Northeast  Level Estimated
Fri 04:45:15 AM 18.7517 -18.6060 34° Northeast  Level Estimated
Fri 04:46:15 AM 18.8601 -18.5289 34° Northeast  Level Estimated
Fri 04:47:15 AM 18.9684 -18.4517 34° Northeast  Level Estimated
Fri 04:48:15 AM 19.0767 -18.3745 34° Northeast  Level Estimated
Fri 04:49:15 AM 19.1850 -18.2971 34° Northeast  Level Estimated
Fri 04:50:15 AM 19.2932 -18.2197 34° Northeast  Level Estimated
Fri 04:51:15 AM 19.4014 -18.1421 34° Northeast  Level Estimated
Fri 04:52:15 AM 19.5096 -18.0644 34° Northeast  Level Estimated
Fri 04:53:15 AM 19.6177 -17.9867 34° Northeast  Level Estimated
Fri 04:54:15 AM 19.7258 -17.9088 34° Northeast  Level Estimated
Fri 04:55:15 AM 19.8339 -17.8308 34° Northeast  Level Estimated
Fri 04:56:15 AM 19.9419 -17.7527 34° Northeast  Level Estimated
Fri 04:57:15 AM 20.0499 -17.6745 34° Northeast  Level Estimated
Fri 04:58:15 AM 20.1579 -17.5962 34° Northeast  Level Estimated
Fri 04:59:15 AM 20.2658 -17.5178 34° Northeast  Level Estimated
Fri 05:00:15 AM 20.3737 -17.4393 34° Northeast  Level Estimated
Fri 05:01:15 AM 20.4816 -17.3606 34° Northeast  Level Estimated
Fri 05:02:15 AM 20.5894 -17.2819 34° Northeast  Level Estimated
Fri 05:03:15 AM 20.6972 -17.2031 34° Northeast  Level Estimated
Fri 05:04:15 AM 20.8050 -17.1241 34° Northeast  Level Estimated
Fri 05:05:15 AM 20.9127 -17.0450 34° Northeast  Level Estimated
Fri 05:06:15 AM 21.0204 -16.9658 34° Northeast  Level Estimated
Fri 05:07:15 AM 21.1280 -16.8865 35° Northeast  Level Estimated
Fri 05:08:15 AM 21.2356 -16.8071 35° Northeast  Level Estimated
Fri 05:09:15 AM 21.3432 -16.7275 35° Northeast  Level Estimated
Fri 05:10:15 AM 21.4507 -16.6479 35° Northeast  Level Estimated
Fri 05:11:15 AM 21.5582 -16.5681 35° Northeast  Level Estimated
Fri 05:12:15 AM 21.6657 -16.4882 35° Northeast  Level Estimated
Fri 05:13:15 AM 21.7731 -16.4082 35° Northeast  Level Estimated
Fri 05:14:15 AM 21.8805 -16.3281 35° Northeast  Level Estimated
Fri 05:15:15 AM 21.9878 -16.2478 35° Northeast  Level Estimated
Fri 05:16:15 AM 22.0951 -16.1675 35° Northeast  Level Estimated
Fri 05:17:15 AM 22.2024 -16.0870 35° Northeast  Level Estimated
Fri 05:18:15 AM 22.3096 -16.0063 35° Northeast  Level Estimated
Fri 05:19:15 AM 22.4168 -15.9256 35° Northeast  Level Estimated
Fri 05:20:15 AM 22.5239 -15.8447 35° Northeast  Level Estimated
Fri 05:21:15 AM 22.6310 -15.7637 35° Northeast  Level Estimated
Fri 05:22:15 AM 22.7381 -15.6826 35° Northeast  Level Estimated
Fri 05:23:15 AM 22.8451 -15.6014 35° Northeast  Level Estimated
Fri 05:24:15 AM 22.9521 -15.5200 35° Northeast  Level Estimated
Fri 05:25:15 AM 23.0590 -15.4385 35° Northeast  Level Estimated
Fri 05:26:15 AM 23.1659 -15.3569 35° Northeast  Level Estimated
Fri 05:27:15 AM 23.2728 -15.2751 35° Northeast  Level Estimated
Fri 05:28:15 AM 23.3796 -15.1932 35° Northeast  Level Estimated
Fri 05:29:15 AM 23.4863 -15.1112 35° Northeast  Level Estimated
Fri 05:30:15 AM 23.5931 -15.0290 35° Northeast  Level Estimated
Fri 05:31:15 AM 23.6998 -14.9467 35° Northeast  Level Estimated
Fri 05:32:15 AM 23.8064 -14.8643 35° Northeast  Level Estimated
Fri 05:33:15 AM 23.9130 -14.7817 35° Northeast  Level Estimated
Fri 05:34:15 AM 24.0196 -14.6990 35° Northeast  Level Estimated
Fri 05:35:15 AM 24.1261 -14.6162 35° Northeast  Level Estimated
Fri 05:36:15 AM 24.2325 -14.5332 35° Northeast  Level Estimated
Fri 05:37:15 AM 24.3389 -14.4501 35° Northeast  Level Estimated
Fri 05:38:15 AM 24.4453 -14.3669 35° Northeast  Level Estimated
Fri 05:39:15 AM 24.5516 -14.2835 36° Northeast  Level Estimated
Fri 05:40:15 AM 24.6579 -14.2000 36° Northeast  Level Estimated
Fri 05:41:15 AM 24.7642 -14.1163 36° Northeast  Level Estimated
Fri 05:42:15 AM 24.8703 -14.0325 36° Northeast  Level Estimated
Fri 05:43:15 AM 24.9765 -13.9485 36° Northeast  Level Estimated
Fri 05:44:15 AM 25.0826 -13.8644 36° Northeast  Level Estimated
Fri 05:45:15 AM 25.1886 -13.7801 36° Northeast  Level Estimated
Fri 05:46:15 AM 25.2946 -13.6957 36° Northeast  Level Estimated
Fri 05:47:15 AM 25.4006 -13.6112 36° Northeast  Level Estimated
Fri 05:48:15 AM 25.5065 -13.5265 36° Northeast  Level Estimated
Fri 05:49:15 AM 25.6123 -13.4416 36° Northeast  Level Estimated
Fri 05:50:15 AM 25.7181 -13.3566 36° Northeast  Level Estimated
Fri 05:51:15 AM 25.8239 -13.2715 36° Northeast  Level Estimated
Fri 05:52:15 AM 25.9296 -13.1862 36° Northeast  Level Estimated
Fri 05:53:15 AM 26.0352 -13.1007 36° Northeast  Level Estimated
Fri 05:54:15 AM 26.1408 -13.0151 36° Northeast  Level Estimated
Fri 05:55:15 AM 26.2464 -12.9294 36° Northeast  Level Estimated
Fri 05:56:15 AM 26.3519 -12.8434 36° Northeast  Level Estimated
Fri 05:57:15 AM 26.4573 -12.7574 36° Northeast  Level Estimated
Fri 05:58:15 AM 26.5627 -12.6711 36° Northeast  Level Estimated
Fri 05:59:15 AM 26.6681 -12.5848 36° Northeast  Level Estimated
Fri 06:00:15 AM 26.7734 -12.4982 36° Northeast  Level Estimated
Fri 06:01:15 AM 26.8786 -12.4115 36° Northeast  Level Estimated
Fri 06:02:15 AM 26.9838 -12.3246 36° Northeast  Level Estimated
Fri 06:03:15 AM 27.0889 -12.2376 36° Northeast  Level Estimated
Fri 06:04:15 AM 27.1940 -12.1504 36° Northeast  Level Estimated
Fri 06:05:15 AM 27.2990 -12.0630 37° Northeast  Level Estimated
Fri 06:06:15 AM 27.4040 -11.9755 37° Northeast  Level Estimated
Fri 06:07:15 AM 27.5089 -11.8878 37° Northeast  Level Estimated
Fri 06:08:15 AM 27.6138 -11.7999 37° Northeast  Level Estimated
Fri 06:09:15 AM 27.7186 -11.7119 37° Northeast  Level Estimated
Fri 06:10:15 AM 27.8234 -11.6237 37° Northeast  Level Estimated
Fri 06:11:15 AM 27.9280 -11.5353 37° Northeast  Level Estimated
Fri 06:12:15 AM 28.0327 -11.4468 37° Northeast  Level Estimated
Fri 06:13:15 AM 28.1373 -11.3581 37° Northeast  Level Estimated
Fri 06:14:15 AM 28.2418 -11.2692 37° Northeast  Level Estimated
Fri 06:15:15 AM 28.3463 -11.1801 37° Northeast  Level Estimated
Fri 06:16:15 AM 28.4507 -11.0909 37° Northeast  Level Estimated
Fri 06:17:15 AM 28.5550 -11.0015 37° Northeast  Level Estimated
Fri 06:18:15 AM 28.6593 -10.9119 37° Northeast  Level Estimated
Fri 06:19:15 AM 28.7636 -10.8221 37° Northeast  Level Estimated
Fri 06:20:15 AM 28.8677 -10.7322 37° Northeast  Level Estimated
Fri 06:21:15 AM 28.9718 -10.6420 37° Northeast  Level Estimated
Fri 06:22:15 AM 29.0759 -10.5517 37° Northeast  Level Estimated
Fri 06:23:15 AM 29.1799 -10.4612 37° Northeast  Level Estimated
Fri 06:24:15 AM 29.2838 -10.3706 37° Northeast  Level Estimated
Fri 06:25:15 AM 29.3877 -10.2797 37° Northeast  Level Estimated
Fri 06:26:15 AM 29.4915 -10.1886 37° Northeast  Level Estimated
Fri 06:27:15 AM 29.5952 -10.0974 37° Northeast  Level Estimated
Fri 06:28:15 AM 29.6989 -10.0060 37° Northeast  Level Estimated
Fri 06:29:15 AM 29.8025 -9.9144 38° Northeast  Level Estimated
Fri 06:30:15 AM 29.9061 -9.8226 38° Northeast  Level Estimated
Fri 06:31:15 AM 30.0096 -9.7306 38° Northeast  Level Estimated
Fri 06:32:15 AM 30.1130 -9.6384 38° Northeast  Level Estimated
Fri 06:33:15 AM 30.2164 -9.5460 38° Northeast  Level Estimated
Fri 06:34:15 AM 30.3197 -9.4535 38° Northeast  Level Estimated
Fri 06:35:15 AM 30.4230 -9.3607 38° Northeast  Level Estimated
Fri 06:36:15 AM 30.5261 -9.2677 38° Northeast  Level Estimated
Fri 06:37:15 AM 30.6292 -9.1746 38° Northeast  Level Estimated
Fri 06:38:15 AM 30.7323 -9.0812 38° Northeast  Level Estimated
Fri 06:39:15 AM 30.8352 -8.9876 38° Northeast  Level Estimated
Fri 06:40:15 AM 30.9381 -8.8939 38° Northeast  Level Estimated
Fri 06:41:15 AM 31.0410 -8.7999 38° Northeast  Level Estimated
Fri 06:42:15 AM 31.1437 -8.7058 38° Northeast  Level Estimated
Fri 06:43:15 AM 31.2464 -8.6114 38° Northeast  Level Estimated
Fri 06:44:15 AM 31.3491 -8.5168 38° Northeast  Level Estimated
Fri 06:45:15 AM 31.4516 -8.4220 38° Northeast  Level Estimated
Fri 06:46:15 AM 31.5541 -8.3270 38° Northeast  Level Estimated
Fri 06:47:15 AM 31.6565 -8.2318 38° Northeast  Level Estimated
Fri 06:48:15 AM 31.7589 -8.1364 38° Northeast  Level Estimated
Fri 06:49:15 AM 31.8612 -8.0408 38° Northeast  Level Estimated
Fri 06:50:15 AM 31.9634 -7.9450 39° Northeast  Level Estimated
Fri 06:51:15 AM 32.0655 -7.8489 39° Northeast  Level Estimated
Fri 06:52:15 AM 32.1676 -7.7527 39° Northeast  Level Estimated
Fri 06:53:15 AM 32.2696 -7.6562 39° Northeast  Level Estimated
Fri 06:54:15 AM 32.3715 -7.5595 39° Northeast  Level Estimated
Fri 06:55:15 AM 32.4733 -7.4626 39° Northeast  Level Estimated
Fri 06:56:15 AM 32.5751 -7.3654 39° Northeast  Level Estimated
Fri 06:57:15 AM 32.6768 -7.2681 39° Northeast  Level Estimated
Fri 06:58:15 AM 32.7784 -7.1705 39° Northeast  Level Estimated
Fri 06:59:15 AM 32.8799 -7.0727 39° Northeast  Level Estimated
Fri 07:00:15 AM 32.9814 -6.9747 39° Northeast  Level Estimated
Fri 07:01:15 AM 33.0828 -6.8765 39° Northeast  Level Estimated
Fri 07:02:15 AM 33.1841 -6.7780 39° Northeast  Level Estimated
Fri 07:03:15 AM 33.2853 -6.6793 39° Northeast  Level Estimated
Fri 07:04:15 AM 33.3865 -6.5804 39° Northeast  Level Estimated
Fri 07:05:15 AM 33.4876 -6.4812 39° Northeast  Level Estimated
Fri 07:06:15 AM 33.5886 -6.3818 39° Northeast  Level Estimated
Fri 07:07:15 AM 33.6895 -6.2822 39° Northeast  Level Estimated
Fri 07:08:15 AM 33.7903 -6.1823 39° Northeast  Level Estimated
Fri 07:09:15 AM 33.8911 -6.0822 40° Northeast  Level Estimated
Fri 07:10:15 AM 33.9918 -5.9819 40° Northeast  Level Estimated
Fri 07:11:15 AM 34.0924 -5.8813 40° Northeast  Level Estimated
Fri 07:12:15 AM 34.1929 -5.7805 40° Northeast  Level Estimated
Fri 07:13:15 AM 34.2933 -5.6795 40° Northeast  Level Estimated
Fri 07:14:15 AM 34.3937 -5.5782 40° Northeast  Level Estimated
Fri 07:15:15 AM 34.4939 -5.4767 40° Northeast  Level Estimated
Fri 07:16:15 AM 34.5941 -5.3749 40° Northeast  Level Estimated
Fri 07:17:15 AM 34.6942 -5.2729 40° Northeast  Level Estimated
Fri 07:18:15 AM 34.7942 -5.1706 40° Northeast  Level Estimated
Fri 07:19:15 AM 34.8941 -5.0681 40° Northeast  Level Estimated
Fri 07:20:15 AM 34.9939 -4.9653 40° Northeast  Level Estimated
Fri 07:21:15 AM 35.0937 -4.8623 40° Northeast  Level Estimated
Fri 07:22:15 AM 35.1934 -4.7590 40° Northeast  Level Estimated
Fri 07:23:15 AM 35.2929 -4.6555 40° Northeast  Level Estimated
Fri 07:24:15 AM 35.3924 -4.5517 40° Northeast  Level Estimated
Fri 07:25:15 AM 35.4918 -4.4476 40° Northeast  Level Estimated
Fri 07:26:15 AM 35.5911 -4.3434 41° Northeast  Level Estimated
Fri 07:27:15 AM 35.6903 -4.2388 41° Northeast  Level Estimated
Fri 07:28:15 AM 35.7895 -4.1340 41° Northeast  Level Estimated
Fri 07:29:15 AM 35.8885 -4.0289 41° Northeast  Level Estimated
Fri 07:30:15 AM 35.9874 -3.9236 41° Northeast  Level Estimated
Fri 07:31:15 AM 36.0863 -3.8180 41° Northeast  Level Estimated
Fri 07:32:15 AM 36.1851 -3.7121 41° Northeast  Level Estimated
Fri 07:33:15 AM 36.2837 -3.6060 41° Northeast  Level Estimated
Fri 07:34:15 AM 36.3823 -3.4996 41° Northeast  Level Estimated
Fri 07:35:15 AM 36.4808 -3.3929 41° Northeast  Level Estimated
Fri 07:36:15 AM 36.5792 -3.2859 41° Northeast  Level Estimated
Fri 07:37:15 AM 36.6774 -3.1787 41° Northeast  Level Estimated
Fri 07:38:15 AM 36.7756 -3.0712 41° Northeast  Level Estimated
Fri 07:39:15 AM 36.8737 -2.9635 41° Northeast  Level Estimated
Fri 07:40:15 AM 36.9717 -2.8554 41° Northeast  Level Estimated
Fri 07:41:15 AM 37.0696 -2.7471 41° Northeast  Level Estimated
Fri 07:42:15 AM 37.1674 -2.6385 42° Northeast  Level Estimated
Fri 07:43:15 AM 37.2651 -2.5296 42° Northeast  Level Estimated
Fri 07:44:15 AM 37.3627 -2.4204 42° Northeast  Level Estimated
Fri 07:45:15 AM 37.4602 -2.3110 42° Northeast  Level Estimated
Fri 07:46:15 AM 37.5576 -2.2013 42° Northeast  Level Estimated
Fri 07:47:15 AM 37.6549 -2.0912 42° Northeast  Level Estimated
Fri 07:48:15 AM 37.7521 -1.9809 42° Northeast  Level Estimated
Fri 07:49:15 AM 37.8492 -1.8703 42° Northeast  Level Estimated
Fri 07:50:15 AM 37.9462 -1.7594 42° Northeast  Level Estimated
Fri 07:51:15 AM 38.0430 -1.6482 42° Northeast  Level Estimated
Fri 07:52:15 AM 38.1398 -1.5368 42° Northeast  Level Estimated
Fri 07:53:15 AM 38.2365 -1.4250 42° Northeast  Level Estimated
Fri 07:54:15 AM 38.3330 -1.3129 42° Northeast  Level Estimated
Fri 07:55:15 AM 38.4295 -1.2005 42° Northeast  Level Estimated
Fri 07:56:15 AM 38.5259 -1.0879 43° Northeast  Level Estimated
Fri 07:57:15 AM 38.6221 -0.9749 43° Northeast  Level Estimated
Fri 07:58:15 AM 38.7182 -0.8616 43° Northeast  Level Estimated
Fri 07:59:15 AM 38.8143 -0.7480 43° Northeast  Level Estimated
Fri 08:00:15 AM 38.9102 -0.6341 43° Northeast  Level Estimated
Fri 08:01:15 AM 39.0060 -0.5199 43° Northeast  Level Estimated
Fri 08:02:15 AM 39.1017 -0.4054 43° Northeast  Level Estimated
Fri 08:03:15 AM 39.1972 -0.2906 43° Northeast  Level Estimated
Fri 08:04:15 AM 39.2927 -0.1755 43° Northeast  Level Estimated
Fri 08:05:15 AM 39.3881 -0.0600 43° Northeast  Level Estimated
Fri 08:06:15 AM 39.4833 0.0558 43° Northeast  Level Estimated
Fri 08:07:15 AM 39.5784 0.1718 43° Northeast  Level Estimated
Fri 08:08:15 AM 39.6734 0.2882 43° Northeast  Level Estimated
Fri 08:09:15 AM 39.7683 0.4049 43° Northeast  Level Estimated
Fri 08:10:15 AM 39.8631 0.5220 44° Northeast  Level Estimated
Fri 08:11:15 AM 39.9577 0.6394 44° Northeast  Level Estimated
Fri 08:12:15 AM 40.0523 0.7570 44° Northeast  Level Estimated
Fri 08:13:15 AM 40.1467 0.8751 44° Northeast  Level Estimated
Fri 08:14:15 AM 40.2410 0.9934 44° Northeast  Level Estimated
Fri 08:15:15 AM 40.3352 1.1121 44° Northeast  Level Estimated
Fri 08:16:15 AM 40.4292 1.2311 44° Northeast  Level Estimated
Fri 08:17:15 AM 40.5231 1.3505 44° Northeast  Level Estimated
Fri 08:18:15 AM 40.6169 1.4701 44° Northeast  Level Estimated
Fri 08:19:15 AM 40.7106 1.5901 44° Northeast  Level Estimated
Fri 08:20:15 AM 40.8042 1.7105 44° Northeast  Level Estimated
Fri 08:21:15 AM 40.8976 1.8312 44° Northeast  Level Estimated
Fri 08:22:15 AM 40.9909 1.9522 44° Northeast  Level Estimated
Fri 08:23:15 AM 41.0841 2.0736 45° Northeast  Level Estimated
Fri 08:24:15 AM 41.1772 2.1953 45° Northeast  Level Estimated
Fri 08:25:15 AM 41.2701 2.3173 45° Northeast  Level Estimated
Fri 08:26:15 AM 41.3629 2.4398 45° Northeast  Level Estimated
Fri 08:27:15 AM 41.4555 2.5625 45° Northeast  Level Estimated
Fri 08:28:15 AM 41.5481 2.6856 45° Northeast  Level Estimated
Fri 08:29:15 AM 41.6405 2.8091 45° Northeast  Level Estimated
Fri 08:30:15 AM 41.7327 2.9329 45° Northeast  Level Estimated
Fri 08:31:15 AM 41.8249 3.0571 45° Northeast  Level Estimated
Fri 08:32:15 AM 41.9169 3.1816 45° Northeast  Level Estimated
Fri 08:33:15 AM 42.0087 3.3065 45° Northeast  Level Estimated
Fri 08:34:15 AM 42.1005 3.4318 45° Northeast  Level Estimated
Fri 08:35:15 AM 42.1921 3.5574 46° Northeast  Level Estimated
Fri 08:36:15 AM 42.2835 3.6833 46° Northeast  Level Estimated
Fri 08:37:15 AM 42.3749 3.8097 46° Northeast  Level Estimated
Fri 08:38:15 AM 42.4660 3.9364 46° Northeast  Level Estimated
Fri 08:39:15 AM 42.5571 4.0635 46° Northeast  Level Estimated
Fri 08:40:15 AM 42.6480 4.1909 46° Northeast  Level Estimated
Fri 08:41:15 AM 42.7387 4.3188 46° Northeast  Level Estimated
Fri 08:42:15 AM 42.8293 4.4470 46° Northeast  Level Estimated
Fri 08:43:15 AM 42.9198 4.5755 46° Northeast  Level Estimated
Fri 08:44:15 AM 43.0102 4.7045 46° Northeast  Level Estimated
Fri 08:45:15 AM 43.1003 4.8338 46° Northeast  Level Estimated
Fri 08:46:15 AM 43.1904 4.9635 46° Northeast  Level Estimated
Fri 08:47:15 AM 43.2803 5.0936 47° Northeast  Level Estimated
Fri 08:48:15 AM 43.3700 5.2241 47° Northeast  Level Estimated
Fri 08:49:15 AM 43.4596 5.3550 47° Northeast  Level Estimated
Fri 08:50:15 AM 43.5490 5.4862 47° Northeast  Level Estimated
Fri 08:51:15 AM 43.6383 5.6179 47° Northeast  Level Estimated
Fri 08:52:15 AM 43.7275 5.7499 47° Northeast  Level Estimated
Fri 08:53:15 AM 43.8164 5.8824 47° Northeast  Level Estimated
Fri 08:54:15 AM 43.9053 6.0152 47° Northeast  Level Estimated
Fri 08:55:15 AM 43.9940 6.1484 47° Northeast  Level Estimated
Fri 08:56:15 AM 44.0825 6.2820 47° Northeast  Level Estimated
Fri 08:57:15 AM 44.1709 6.4161 47° Northeast  Level Estimated
Fri 08:58:15 AM 44.2591 6.5505 48° Northeast  Level Estimated
Fri 08:59:15 AM 44.3471 6.6853 48° Northeast  Level Estimated
Fri 09:00:15 AM 44.4350 6.8205 48° Northeast  Level Estimated
Fri 09:01:15 AM 44.5228 6.9562 48° Northeast  Level Estimated
Fri 09:02:15 AM 44.6103 7.0922 48° Northeast  Level Estimated
Fri 09:03:15 AM 44.6977 7.2287 48° Northeast  Level Estimated
Fri 09:04:15 AM 44.7850 7.3656 48° Northeast  Level Estimated
Fri 09:05:15 AM 44.8721 7.5028 48° Northeast  Level Estimated
Fri 09:06:15 AM 44.9590 7.6405 48° Northeast  Level Estimated
Fri 09:07:15 AM 45.0457 7.7787 48° Northeast  Level Estimated
Fri 09:08:15 AM 45.1323 7.9172 49° Northeast  Level Estimated
Fri 09:09:15 AM 45.2188 8.0562 49° Northeast  Level Estimated
Fri 09:10:15 AM 45.3050 8.1955 49° Northeast  Level Estimated
Fri 09:11:15 AM 45.3911 8.3354 49° Northeast  Level Estimated
Fri 09:12:15 AM 45.4770 8.4756 49° Northeast  Level Estimated
Fri 09:13:15 AM 45.5627 8.6162 49° Northeast  Level Estimated
Fri 09:14:15 AM 45.6483 8.7573 229° Southwest  Level Estimated
Fri 09:15:15 AM 45.5627 8.6162 49° Northeast  Level Estimated
Fri 09:16:15 AM 45.6483 8.7573 229° Southwest  Level Estimated
Fri 09:17:15 AM 45.5627 8.6162 49° Northeast  Level Estimated
Fri 09:18:15 AM 45.6483 8.7573 229° Southwest  Level Estimated
Fri 09:19:15 AM 45.5627 8.6162 49° Northeast  Level Estimated
Fri 09:20:15 AM 45.6483 8.7573 229° Southwest  Level Estimated
Fri 09:21:15 AM 45.5627 8.6162 49° Northeast  Level Estimated
Fri 09:22:15 AM 45.6483 8.7573 229° Southwest  Level Estimated
Fri 09:23:15 AM 45.5627 8.6162 49° Northeast  Level Estimated
Fri 09:24:15 AM 45.6483 8.7573 229° Southwest  Level Estimated
Fri 09:25:15 AM 45.5627 8.6162 49° Northeast  Level Estimated
Fri 09:26:15 AM 45.6483 8.7573 229° Southwest  Level Estimated
Fri 09:27:15 AM 45.5627 8.6162 49° Northeast  Level Estimated
Fri 09:28:15 AM 45.6483 8.7573 49° Northeast  Level Estimated

Login

Don't have an account? Register now (free) for customized features, flight alerts, and more!